createdAt,value
2022-10-18T00:00:53.435Z,5.75
2022-10-18T00:03:56.154Z,5.45
2022-10-18T00:06:59.183Z,6.00
2022-10-18T00:10:01.754Z,5.07
2022-10-18T00:13:04.552Z,5.07
2022-10-18T00:16:16.905Z,5.10
2022-10-18T00:19:19.582Z,5.07
2022-10-18T00:22:22.277Z,4.80
2022-10-18T00:25:24.941Z,4.93
2022-10-18T00:28:27.538Z,4.88
2022-10-18T00:31:33.294Z,5.10
2022-10-18T00:34:36.028Z,5.15
2022-10-18T00:37:38.578Z,4.90
2022-10-18T00:40:41.315Z,4.73
2022-10-18T00:43:55.493Z,4.75
2022-10-18T00:47:02.999Z,5.32
2022-10-18T00:50:08.986Z,6.30
2022-10-18T00:53:17.338Z,6.67
2022-10-18T00:56:20.083Z,6.40
2022-10-18T00:59:23.485Z,5.82
2022-10-18T01:02:28.297Z,5.55
2022-10-18T01:05:31.303Z,5.75
2022-10-18T01:08:46.621Z,5.97
2022-10-18T01:12:05.371Z,6.53
2022-10-18T01:15:15.125Z,6.60
2022-10-18T01:18:33.382Z,6.68
2022-10-18T01:21:46.065Z,6.20
2022-10-18T01:28:21.308Z,5.95
2022-10-18T01:31:31.419Z,6.13
2022-10-18T01:34:38.770Z,5.90
2022-10-18T01:37:44.458Z,6.00
2022-10-18T01:40:50.185Z,6.53
2022-10-18T01:43:57.197Z,6.30
2022-10-18T01:47:01.454Z,6.40
2022-10-18T01:50:06.846Z,6.07
2022-10-18T01:53:26.563Z,5.95
2022-10-18T01:56:36.638Z,5.60
2022-10-18T01:59:51.682Z,5.93
2022-10-18T02:03:02.922Z,5.72
2022-10-18T02:06:10.639Z,5.20
2022-10-18T02:09:19.972Z,5.75
2022-10-18T02:12:24.243Z,5.37
2022-10-18T02:15:34.036Z,5.35
2022-10-18T02:18:42.656Z,5.75
2022-10-18T02:21:48.719Z,5.53
2022-10-18T02:24:55.577Z,5.15
2022-10-18T02:27:58.550Z,5.30
2022-10-18T02:31:07.980Z,5.28
2022-10-18T02:34:17.923Z,5.65
2022-10-18T02:37:21.598Z,5.30
2022-10-18T02:40:25.535Z,5.68
2022-10-18T02:43:28.251Z,5.87
2022-10-18T02:46:30.967Z,5.03
2022-10-18T02:49:34.897Z,5.60
2022-10-18T02:52:37.602Z,4.95
2022-10-18T02:55:40.167Z,5.10
2022-10-18T02:58:42.801Z,4.83
2022-10-18T03:01:45.535Z,4.97
2022-10-18T03:04:49.454Z,6.00
2022-10-18T03:07:52.164Z,5.30
2022-10-18T03:10:54.703Z,6.90
2022-10-18T03:13:57.393Z,5.43
2022-10-18T03:17:00.128Z,5.60
2022-10-18T03:20:04.265Z,5.60
2022-10-18T03:23:07.337Z,5.45
2022-10-18T03:26:09.928Z,5.22
2022-10-18T03:29:12.743Z,5.37
2022-10-18T03:32:15.299Z,5.53
2022-10-18T03:35:19.418Z,4.93
2022-10-18T03:38:21.978Z,4.33
2022-10-18T03:41:24.521Z,5.35
2022-10-18T03:44:27.102Z,4.93
2022-10-18T03:47:29.812Z,4.85
2022-10-18T03:50:33.776Z,4.77
2022-10-18T03:53:36.462Z,4.60
2022-10-18T03:56:39.028Z,4.50
2022-10-18T03:59:41.714Z,5.00
2022-10-18T04:02:44.420Z,4.65
2022-10-18T04:05:49.294Z,4.87
2022-10-18T04:08:51.954Z,4.83
2022-10-18T04:11:54.502Z,4.90
2022-10-18T04:14:57.185Z,6.90
2022-10-18T04:17:59.849Z,6.63
2022-10-18T04:21:03.840Z,5.90
2022-10-18T04:24:07.184Z,4.97
2022-10-18T04:27:09.734Z,5.75
2022-10-18T04:30:12.677Z,5.70
2022-10-18T04:33:15.387Z,5.50
2022-10-18T04:36:19.328Z,5.40
2022-10-18T04:39:22.089Z,5.10
2022-10-18T04:42:25.384Z,4.90
2022-10-18T04:45:28.166Z,5.05
2022-10-18T04:48:30.825Z,5.38
2022-10-18T04:51:34.738Z,5.83
2022-10-18T04:54:37.462Z,5.23
2022-10-18T04:57:40.046Z,5.28
2022-10-18T05:00:43.584Z,5.40
2022-10-18T05:03:46.320Z,4.80
2022-10-18T05:06:50.342Z,4.73
2022-10-18T05:09:53.007Z,4.80
2022-10-18T05:12:55.557Z,4.13
2022-10-18T05:15:59.519Z,4.10
2022-10-18T05:19:02.124Z,4.95
2022-10-18T05:22:06.006Z,4.93
2022-10-18T05:25:09.967Z,4.63
2022-10-18T05:28:34.596Z,5.68
2022-10-18T05:31:35.562Z,5.70
2022-10-18T05:34:38.140Z,5.30
2022-10-18T05:37:42.100Z,5.67
2022-10-18T05:40:44.675Z,5.10
2022-10-18T05:43:47.228Z,4.50
2022-10-18T05:46:49.905Z,5.20
2022-10-18T05:49:52.717Z,4.90
2022-10-18T05:53:06.949Z,5.20
2022-10-18T05:56:15.538Z,4.90
2022-10-18T05:59:18.106Z,4.90
2022-10-18T06:02:20.765Z,5.38
2022-10-18T06:05:23.461Z,4.60
2022-10-18T06:08:27.398Z,4.80
2022-10-18T06:11:31.356Z,5.07
2022-10-18T06:14:34.158Z,5.00
2022-10-18T06:17:36.987Z,4.35
2022-10-18T06:20:39.927Z,4.53
2022-10-18T06:23:43.923Z,4.60
2022-10-18T06:26:46.616Z,4.13
2022-10-18T06:29:49.166Z,4.68
2022-10-18T06:32:51.890Z,5.15
2022-10-18T06:35:59.209Z,4.40
2022-10-18T06:39:03.179Z,4.80
2022-10-18T06:42:05.942Z,4.57
2022-10-18T06:45:09.828Z,4.63
2022-10-18T06:48:12.556Z,4.80
2022-10-18T06:51:15.864Z,4.43
2022-10-18T06:54:19.894Z,4.43
2022-10-18T06:57:22.875Z,4.40
2022-10-18T07:00:25.432Z,4.55
2022-10-18T07:03:28.114Z,4.70
2022-10-18T07:06:30.838Z,4.68
2022-10-18T07:09:34.900Z,5.07
2022-10-18T07:12:37.727Z,4.60
2022-10-18T07:15:40.439Z,4.85
2022-10-18T07:18:44.435Z,4.78
2022-10-18T07:21:47.132Z,4.15
2022-10-18T07:24:51.050Z,4.40
2022-10-18T07:27:53.817Z,5.97
2022-10-18T07:30:56.533Z,4.93
2022-10-18T07:33:59.265Z,4.78
2022-10-18T07:37:02.747Z,6.53
2022-10-18T07:40:07.929Z,5.67
2022-10-18T07:43:12.316Z,5.77
2022-10-18T07:46:16.345Z,6.43
2022-10-18T07:49:19.116Z,6.07
2022-10-18T07:52:21.690Z,7.28
2022-10-18T07:55:25.708Z,6.10
2022-10-18T07:58:28.633Z,15.48
2022-10-18T08:01:31.747Z,11.35
2022-10-18T08:04:34.359Z,7.00
2022-10-18T08:07:36.988Z,5.22
2022-10-18T08:10:41.548Z,4.40
2022-10-18T08:13:45.085Z,5.00
2022-10-18T08:16:47.625Z,7.30
2022-10-18T08:20:04.734Z,6.20
2022-10-18T08:23:13.554Z,4.90
2022-10-18T08:26:20.039Z,5.03
2022-10-18T08:29:25.835Z,4.35
2022-10-18T08:32:30.973Z,8.75
2022-10-18T08:35:33.913Z,11.27
2022-10-18T08:38:38.203Z,9.80
2022-10-18T08:42:10.525Z,7.45
2022-10-18T08:45:40.883Z,10.82
2022-10-18T08:48:41.613Z,7.55
2022-10-18T08:51:47.454Z,7.73
2022-10-18T08:55:00.664Z,8.07
2022-10-18T08:58:14.162Z,8.15
2022-10-18T09:01:29.714Z,6.25
2022-10-18T09:04:43.187Z,5.40
2022-10-18T09:08:09.530Z,6.03
2022-10-18T09:11:27.815Z,5.18
2022-10-18T09:15:13.784Z,4.68
2022-10-18T09:18:45.312Z,4.90
2022-10-18T09:21:53.265Z,4.50
2022-10-18T09:25:07.111Z,4.30
2022-10-18T09:28:18.134Z,4.45
2022-10-18T09:31:29.380Z,4.32
2022-10-18T09:34:39.435Z,5.30
2022-10-18T09:37:44.327Z,4.68
2022-10-18T09:40:53.553Z,4.63
2022-10-18T09:44:00.056Z,4.50
2022-10-18T09:47:12.292Z,4.80
2022-10-18T09:50:26.416Z,4.70
2022-10-18T09:53:37.587Z,6.50
2022-10-18T09:56:46.197Z,5.50
2022-10-18T09:59:50.299Z,5.30
2022-10-18T10:02:55.853Z,5.00
2022-10-18T10:06:15.764Z,5.53
2022-10-18T10:09:22.514Z,7.97
2022-10-18T10:12:31.338Z,6.37
2022-10-18T10:15:40.516Z,5.00
2022-10-18T10:18:54.437Z,4.88
2022-10-18T10:22:03.055Z,3.90
2022-10-18T10:25:07.578Z,4.60
2022-10-18T10:28:16.703Z,4.37
2022-10-18T10:31:27.717Z,4.05
2022-10-18T10:34:31.740Z,4.70
2022-10-18T10:37:36.968Z,4.60
2022-10-18T10:40:46.840Z,5.15
2022-10-18T10:43:50.652Z,4.87
2022-10-18T10:46:54.959Z,4.18
2022-10-18T10:49:59.140Z,5.18
2022-10-18T10:53:02.275Z,5.13
2022-10-18T10:56:06.923Z,5.80
2022-10-18T10:59:14.515Z,6.33
2022-10-18T11:02:23.616Z,5.40
2022-10-18T11:05:29.734Z,5.00
2022-10-18T11:08:39.320Z,4.68
2022-10-18T11:11:49.941Z,4.63
2022-10-18T11:15:00.490Z,4.90
2022-10-18T11:18:14.394Z,5.15
2022-10-18T11:21:23.175Z,31.63
2022-10-18T11:24:26.896Z,12.80
2022-10-18T11:27:35.998Z,8.03
2022-10-18T11:30:51.670Z,5.80
2022-10-18T11:34:18.306Z,6.57
2022-10-18T11:37:41.695Z,6.43
2022-10-18T11:41:00.784Z,5.05
2022-10-18T11:44:05.087Z,7.10
2022-10-18T11:47:16.388Z,5.50
2022-10-18T11:50:29.593Z,4.68
2022-10-18T11:53:38.116Z,4.70
2022-10-18T11:56:48.504Z,5.90
2022-10-18T12:00:02.830Z,5.57
2022-10-18T12:03:33.170Z,7.90
2022-10-18T12:06:38.686Z,7.35
2022-10-18T12:09:45.459Z,12.15
2022-10-18T12:12:52.700Z,6.13
2022-10-18T12:15:56.627Z,5.17
2022-10-18T12:19:01.152Z,7.40
2022-10-18T12:22:14.767Z,5.68
2022-10-18T12:25:20.169Z,5.60
2022-10-18T12:28:38.430Z,4.93
2022-10-18T12:31:46.231Z,5.63
2022-10-18T12:34:52.179Z,6.23
2022-10-18T12:38:07.181Z,5.85
2022-10-18T12:41:20.651Z,4.97
2022-10-18T12:44:28.767Z,5.20
2022-10-18T12:47:32.298Z,4.60
2022-10-18T12:50:37.871Z,5.10
2022-10-18T12:53:41.979Z,5.18
2022-10-18T12:56:47.722Z,7.07
2022-10-18T12:59:50.883Z,6.60
2022-10-18T13:03:41.029Z,6.13
2022-10-18T13:07:19.701Z,5.70
2022-10-18T13:10:40.460Z,5.10
2022-10-18T13:13:55.687Z,4.90
2022-10-18T13:17:05.633Z,5.10
2022-10-18T13:20:27.346Z,5.50
2022-10-18T13:23:43.628Z,5.17
2022-10-18T13:27:18.019Z,5.18
2022-10-18T13:30:32.528Z,4.97
2022-10-18T13:33:38.616Z,4.80
2022-10-18T13:36:43.552Z,5.20
2022-10-18T13:39:46.290Z,5.43
2022-10-18T13:42:48.886Z,5.97
2022-10-18T13:45:55.886Z,5.20
2022-10-18T13:49:01.075Z,5.38
2022-10-18T13:52:16.674Z,5.40
2022-10-18T13:55:37.892Z,5.53
2022-10-18T13:59:05.717Z,6.00
2022-10-18T14:02:50.489Z,5.47
2022-10-18T14:05:58.022Z,5.05
2022-10-18T14:09:13.910Z,6.00
2022-10-18T14:12:33.540Z,6.03
2022-10-18T14:15:40.359Z,5.95
2022-10-18T14:18:44.158Z,6.40
2022-10-18T14:21:54.977Z,5.97
2022-10-18T14:25:00.159Z,6.10
2022-10-18T14:28:13.447Z,6.40
2022-10-18T14:31:19.233Z,5.53
2022-10-18T14:34:22.694Z,5.80
2022-10-18T14:37:29.997Z,5.55
2022-10-18T14:40:37.990Z,5.60
2022-10-18T14:43:40.693Z,5.40
2022-10-18T14:46:44.889Z,5.55
2022-10-18T14:49:48.442Z,5.70
2022-10-18T14:52:51.730Z,5.60
2022-10-18T14:55:57.373Z,5.97
2022-10-18T14:59:03.829Z,6.47
2022-10-18T15:02:14.889Z,6.07
2022-10-18T15:05:22.314Z,5.47
2022-10-18T15:08:27.962Z,5.10
2022-10-18T15:11:33.803Z,5.50
2022-10-18T15:14:37.922Z,4.80
2022-10-18T15:17:41.841Z,4.95
2022-10-18T15:20:44.523Z,4.88
2022-10-18T15:23:47.125Z,5.88
2022-10-18T15:26:52.890Z,6.50
2022-10-18T15:29:55.939Z,6.13
2022-10-18T15:33:00.594Z,7.95
2022-10-18T15:36:11.077Z,7.25
2022-10-18T15:39:17.720Z,5.88
2022-10-18T15:42:38.643Z,5.70
2022-10-18T15:49:20.035Z,5.70
2022-10-18T15:52:40.726Z,5.70
2022-10-18T15:55:52.194Z,5.80
2022-10-18T15:58:57.858Z,5.87
2022-10-18T16:02:00.794Z,5.53
2022-10-18T16:05:04.060Z,5.90
2022-10-18T16:08:06.903Z,5.75
2022-10-18T16:11:14.802Z,5.38
2022-10-18T16:14:19.077Z,5.67
2022-10-18T16:17:21.649Z,5.53
2022-10-18T16:20:27.264Z,5.68
2022-10-18T16:23:29.844Z,5.53
2022-10-18T16:26:32.575Z,4.77
2022-10-18T16:29:36.638Z,5.00
2022-10-18T16:32:40.372Z,4.67
2022-10-18T16:35:42.931Z,4.45
2022-10-18T16:38:46.428Z,4.60
2022-10-18T16:41:49.473Z,4.57
2022-10-18T16:44:54.889Z,4.67
2022-10-18T16:47:57.437Z,4.77
2022-10-18T16:51:00.550Z,4.90
2022-10-18T16:54:07.755Z,5.25
2022-10-18T16:57:12.703Z,4.82
2022-10-18T17:00:20.718Z,4.90
2022-10-18T17:03:24.650Z,5.13
2022-10-18T17:06:29.355Z,4.78
2022-10-18T17:09:34.735Z,5.50
2022-10-18T17:12:37.321Z,6.15
2022-10-18T17:15:42.432Z,5.85
2022-10-18T17:18:45.201Z,6.00
2022-10-18T17:21:47.986Z,6.57
2022-10-18T17:24:50.861Z,6.07
2022-10-18T17:27:53.447Z,6.70
2022-10-18T17:30:57.613Z,7.57
2022-10-18T17:34:01.814Z,7.70
2022-10-18T17:37:05.519Z,8.32
2022-10-18T17:40:09.834Z,7.80
2022-10-18T17:43:14.731Z,7.80
2022-10-18T17:46:19.765Z,8.00
2022-10-18T17:49:22.893Z,7.63
2022-10-18T17:52:25.838Z,8.88
2022-10-18T17:55:30.023Z,8.87
2022-10-18T17:58:33.312Z,9.95
2022-10-18T18:01:37.683Z,11.18
2022-10-18T18:04:40.408Z,11.38
2022-10-18T18:07:44.257Z,11.23
2022-10-18T18:10:46.877Z,10.53
2022-10-18T18:13:49.717Z,10.15
2022-10-18T18:16:54.240Z,10.35
2022-10-18T18:19:56.823Z,9.40
2022-10-18T18:22:59.465Z,9.48
2022-10-18T18:26:02.354Z,8.50
2022-10-18T18:29:08.524Z,7.65
2022-10-18T18:32:13.215Z,8.32
2022-10-18T18:35:16.215Z,7.72
2022-10-18T18:38:19.152Z,7.95
2022-10-18T18:41:23.376Z,8.50
2022-10-18T18:44:26.291Z,8.68
2022-10-18T18:47:31.050Z,9.25
2022-10-18T18:50:37.043Z,8.90
2022-10-18T18:53:41.199Z,7.90
2022-10-18T18:56:44.191Z,8.10
2022-10-18T18:59:47.050Z,7.82
2022-10-18T19:02:51.173Z,8.20
2022-10-18T19:06:03.624Z,7.75
2022-10-18T19:09:12.316Z,8.23
2022-10-18T19:12:19.101Z,8.03
2022-10-18T19:15:24.177Z,7.75
2022-10-18T19:18:28.228Z,7.45
2022-10-18T19:21:32.933Z,7.20
2022-10-18T19:24:35.546Z,6.65
2022-10-18T19:27:38.356Z,6.97
2022-10-18T19:30:40.932Z,6.88
2022-10-18T19:33:48.403Z,6.97
2022-10-18T19:36:58.809Z,6.25
2022-10-18T19:40:01.672Z,6.35
2022-10-18T19:43:04.388Z,6.50
2022-10-18T19:46:07.473Z,5.95
2022-10-18T19:49:12.123Z,6.43
2022-10-18T19:52:14.901Z,5.88
2022-10-18T19:55:18.953Z,5.97
2022-10-18T19:58:21.497Z,5.30
2022-10-18T20:01:24.356Z,4.90
2022-10-18T20:04:34.209Z,5.40
2022-10-18T20:07:37.444Z,4.95
2022-10-18T20:10:40.476Z,5.22
2022-10-18T20:13:43.821Z,4.70
2022-10-18T20:16:47.001Z,4.53
2022-10-18T20:19:51.041Z,4.07
2022-10-18T20:22:53.624Z,4.38
2022-10-18T20:25:58.178Z,4.03
2022-10-18T20:29:00.839Z,4.10
2022-10-18T20:32:03.661Z,3.70
2022-10-18T20:35:11.941Z,4.10
2022-10-18T20:38:14.689Z,3.83
2022-10-18T20:41:25.182Z,4.32
2022-10-18T20:44:30.659Z,3.93
2022-10-18T20:47:33.944Z,3.90
2022-10-18T20:50:41.750Z,4.30
2022-10-18T20:53:45.051Z,3.67
2022-10-18T20:56:47.715Z,3.88
2022-10-18T20:59:50.470Z,3.60
2022-10-18T21:02:55.802Z,3.88
2022-10-18T21:06:02.362Z,3.83
2022-10-18T21:09:08.760Z,3.60
2022-10-18T21:15:20.113Z,3.40
2022-10-18T21:18:26.139Z,3.60
2022-10-18T21:21:30.853Z,3.50
2022-10-18T21:24:33.979Z,3.40
2022-10-18T21:27:36.840Z,3.17
2022-10-18T21:30:45.461Z,3.27
2022-10-18T21:33:48.601Z,3.40
2022-10-18T21:36:52.686Z,3.55
2022-10-18T21:39:55.214Z,3.35
2022-10-18T21:42:58.023Z,3.40
2022-10-18T21:46:01.378Z,2.87
2022-10-18T21:49:04.234Z,2.97
2022-10-18T21:52:08.288Z,3.15
2022-10-18T21:55:11.069Z,3.05
2022-10-18T21:58:13.831Z,3.27
2022-10-18T22:01:18.463Z,2.80
2022-10-18T22:04:22.882Z,3.10
2022-10-18T22:07:26.949Z,3.15
2022-10-18T22:10:29.527Z,2.75
2022-10-18T22:13:32.439Z,2.53
2022-10-18T22:16:35.224Z,2.20
2022-10-18T22:19:37.785Z,2.28
2022-10-18T22:22:41.883Z,2.50
2022-10-18T22:25:44.540Z,2.40
2022-10-18T22:28:47.825Z,2.30
2022-10-18T22:31:51.813Z,2.40
2022-10-18T22:34:54.392Z,2.65
2022-10-18T22:37:58.483Z,2.63
2022-10-18T22:41:04.951Z,2.22
2022-10-18T22:44:08.187Z,2.10
2022-10-18T22:47:10.860Z,2.60
2022-10-18T22:50:13.413Z,2.67
2022-10-18T22:53:17.648Z,2.75
2022-10-18T22:56:22.045Z,2.78
2022-10-18T22:59:24.922Z,2.53
2022-10-18T23:02:27.845Z,2.70
2022-10-18T23:05:30.509Z,2.50
2022-10-18T23:08:34.635Z,2.67
2022-10-18T23:11:38.379Z,2.25
2022-10-18T23:14:41.190Z,2.70
2022-10-18T23:17:43.891Z,2.50
2022-10-18T23:20:46.704Z,2.33
2022-10-18T23:23:51.722Z,2.40
2022-10-18T23:26:54.429Z,2.35
2022-10-18T23:29:57.305Z,2.57
2022-10-18T23:33:00.131Z,2.10
2022-10-18T23:36:02.839Z,2.30
2022-10-18T23:39:07.282Z,2.30
2022-10-18T23:42:09.869Z,2.22
2022-10-18T23:45:12.580Z,2.00
2022-10-18T23:48:15.383Z,2.33
2022-10-18T23:51:18.842Z,2.10
2022-10-18T23:54:23.166Z,2.70
2022-10-18T23:57:25.736Z,2.00
